Detall de PIREP

Printer-friendly versionPDF version

[2015/08/28 06:01:00]
Flight IATA:CT3315
Pilot Number:042
Company ICAO:CAT
Aircraft Type:B752/E
PAX:95
Aircraft Registration:PAX
Departing Airport: OLBA
Destination Airport: LEZG
Alternate Airport:LEBL
Online: VATSIM
Route: KAD UR219 KUKLA UR19 LCA UM978 DEMAG UP158 ELKAN UP167 GINOX UM601 BCN UN725 LOBAR
Flight Level:F360
No Slew and time accel
No pause
Crash detect
Detect pilot in Cockpit between each 30 and 45 minutes
06:01 Zero fuel Weight: 196549 Lbs, Fuel Weight: 75522 Lbs
06:01 VATSIM:OLBA 280500Z VRB02KT 9999 SKC 29/12 Q1012
06:01 VATSIM:LEZG 280530Z 22002KT CAVOK 19/16 Q1017
06:03 Parking Brakes off
06:11 Take-off
06:11 Take off Weight: 270060 Lbs
06:11 Wind: 000º @ 002 Knots Heading: 346º
06:11 POS N33º 49´ 38´´ E035º 28´ 56´´
06:11 Gear Up: 178 Knots
06:11 Flaps:3 at 178 Knots
06:12 Flaps:2 at 194 Knots
06:12 Flaps:1 at 217 Knots
06:14 Flaps:0 at 250Knots
06:25 TOC
06:25 Fuel Weight: 68041 Lb
06:26 Wind:249º@056 Knots Heading: 297º Ground Speed: 372 Knots Altitude 35941 ft
06:41 Wind:249º@050 Knots Heading: 269º Ground Speed: 437 Knots Altitude 35931 ft
06:56 Wind:254º@041 Knots Heading: 271º Ground Speed: 431 Knots Altitude 35958 ft
07:11 Wind:262º@027 Knots Heading: 270º Ground Speed: 442 Knots Altitude 35987 ft
07:26 Wind:266º@014 Knots Heading: 274º Ground Speed: 453 Knots Altitude 36049 ft
07:41 Wind:285º@005 Knots Heading: 278º Ground Speed: 461 Knots Altitude 36102 ft
07:56 Wind:059º@004 Knots Heading: 286º Ground Speed: 468 Knots Altitude 36102 ft
08:11 Wind:067º@013 Knots Heading: 300º Ground Speed: 473 Knots Altitude 36151 ft
08:26 Wind:067º@018 Knots Heading: 301º Ground Speed: 475 Knots Altitude 36148 ft
08:41 Wind:070º@019 Knots Heading: 300º Ground Speed: 478 Knots Altitude 36167 ft
08:56 Wind:068º@019 Knots Heading: 301º Ground Speed: 477 Knots Altitude 36138 ft
09:11 Wind:055º@022 Knots Heading: 291º Ground Speed: 478 Knots Altitude 36158 ft
09:26 Wind:049º@025 Knots Heading: 274º Ground Speed: 483 Knots Altitude 36167 ft
09:41 Wind:045º@019 Knots Heading: 280º Ground Speed: 478 Knots Altitude 36171 ft
09:56 Wind:104º@008 Knots Heading: 288º Ground Speed: 474 Knots Altitude 36151 ft
10:05 TOD
10:05 Fuel Weight: 36403 Lb
10:11 Wind:218º@016 Knots Heading: 266º Ground Speed: 477 Knots Altitude 28789 ft
10:15 Flaps:1 at 286 Knots
10:16 Flaps:0 at 266 Knots
10:24 Flaps:1 at 209 Knots
10:25 Flaps:2 at 189 Knots
10:25 Flaps:3 at 187 Knots
10:26 Wind:192º@002 Knots Heading: 270º Ground Speed: 192 Knots Altitude 3044 ft
10:29 Gear Down: 184 Knots
10:29 Flaps:5 at 185 Knots
10:29 Flaps:6 at 185 Knots
10:29 Flaps:5 at 168 Knots
10:30 Flaps:6 at 161 Knots
10:31 Flaps:5 at 162 Knots
10:31 Flaps:6 at 161 Knots
10:32 TouchDown:Rate -229 ft/min Speed: 148 Knots
10:32 VATSIM:LEZG 281000Z 12001KT CAVOK 27/15 Q1018
10:32 Land
10:32 Wind:120º@001 Knots
10:32 Heading: 298º
10:32 Flight Duration: 04:21
10:32 Landing Weight: 229594 Lbs
10:32 POS N41º 39´ 50´´ W001º 01´ 40´´
10:34 Parking brakes on
10:34 Block to Block Duration: 04:31
10:34 Final Fuel: 32826 Lbls
10:34 Spent Fuel: 42696 Lbls
10:34 Flight Length: 1937 NM
10:34 TOD Land Length: 146 NM

Exportar CSV

Powered by Drupal - Modified by Danger4k